sensor_id;sensor_type;location;lat;lon;timestamp;P1;durP1;ratioP1;P2;durP2;ratioP2
6406;SDS011;3236;51.022;6.818;2023-12-20T00:01:10;27.67;;;14.18;;
6406;SDS011;3236;51.022;6.818;2023-12-20T00:03:37;29.15;;;14.60;;
6406;SDS011;3236;51.022;6.818;2023-12-20T00:06:04;29.00;;;13.63;;
6406;SDS011;3236;51.022;6.818;2023-12-20T00:08:32;25.65;;;13.85;;
6406;SDS011;3236;51.022;6.818;2023-12-20T00:10:59;26.80;;;13.63;;
6406;SDS011;3236;51.022;6.818;2023-12-20T00:13:26;24.70;;;12.15;;
6406;SDS011;3236;51.022;6.818;2023-12-20T00:15:55;21.17;;;11.00;;
6406;SDS011;3236;51.022;6.818;2023-12-20T00:18:22;20.83;;;10.38;;
6406;SDS011;3236;51.022;6.818;2023-12-20T00:20:49;17.58;;;9.73;;
6406;SDS011;3236;51.022;6.818;2023-12-20T00:23:17;14.98;;;7.30;;
6406;SDS011;3236;51.022;6.818;2023-12-20T00:25:44;12.98;;;7.13;;
6406;SDS011;3236;51.022;6.818;2023-12-20T00:28:12;7.35;;;4.50;;
6406;SDS011;3236;51.022;6.818;2023-12-20T00:30:39;15.60;;;5.85;;
6406;SDS011;3236;51.022;6.818;2023-12-20T00:33:08;8.15;;;4.90;;
6406;SDS011;3236;51.022;6.818;2023-12-20T00:35:35;14.40;;;5.22;;
6406;SDS011;3236;51.022;6.818;2023-12-20T00:38:03;5.38;;;3.83;;
6406;SDS011;3236;51.022;6.818;2023-12-20T00:40:35;8.05;;;4.10;;
6406;SDS011;3236;51.022;6.818;2023-12-20T00:43:03;11.82;;;4.05;;
6406;SDS011;3236;51.022;6.818;2023-12-20T00:45:30;10.95;;;3.80;;
6406;SDS011;3236;51.022;6.818;2023-12-20T00:48:00;8.07;;;4.35;;
6406;SDS011;3236;51.022;6.818;2023-12-20T00:50:29;9.88;;;4.18;;
6406;SDS011;3236;51.022;6.818;2023-12-20T00:52:56;7.93;;;4.93;;
6406;SDS011;3236;51.022;6.818;2023-12-20T00:55:23;8.85;;;4.78;;
6406;SDS011;3236;51.022;6.818;2023-12-20T00:57:50;16.02;;;4.82;;
6406;SDS011;3236;51.022;6.818;2023-12-20T01:00:18;10.10;;;4.68;;
6406;SDS011;3236;51.022;6.818;2023-12-20T01:02:46;10.35;;;4.55;;
6406;SDS011;3236;51.022;6.818;2023-12-20T01:05:15;11.88;;;5.53;;
6406;SDS011;3236;51.022;6.818;2023-12-20T01:07:44;14.45;;;6.78;;
6406;SDS011;3236;51.022;6.818;2023-12-20T01:10:11;18.13;;;7.05;;
6406;SDS011;3236;51.022;6.818;2023-12-20T01:12:38;17.30;;;6.63;;
6406;SDS011;3236;51.022;6.818;2023-12-20T01:15:05;19.50;;;8.50;;
6406;SDS011;3236;51.022;6.818;2023-12-20T01:17:33;16.33;;;6.88;;
6406;SDS011;3236;51.022;6.818;2023-12-20T01:20:01;23.73;;;9.55;;
6406;SDS011;3236;51.022;6.818;2023-12-20T01:22:28;20.13;;;8.73;;
6406;SDS011;3236;51.022;6.818;2023-12-20T01:24:57;28.67;;;10.75;;
6406;SDS011;3236;51.022;6.818;2023-12-20T01:27:30;26.00;;;12.23;;
6406;SDS011;3236;51.022;6.818;2023-12-20T01:29:57;28.40;;;14.30;;
6406;SDS011;3236;51.022;6.818;2023-12-20T01:32:25;37.70;;;14.75;;
6406;SDS011;3236;51.022;6.818;2023-12-20T01:34:52;33.15;;;14.00;;
6406;SDS011;3236;51.022;6.818;2023-12-20T01:37:19;34.78;;;16.50;;
6406;SDS011;3236;51.022;6.818;2023-12-20T01:39:49;33.67;;;16.17;;
6406;SDS011;3236;51.022;6.818;2023-12-20T01:42:17;35.35;;;15.48;;
6406;SDS011;3236;51.022;6.818;2023-12-20T01:44:45;35.65;;;13.73;;
6406;SDS011;3236;51.022;6.818;2023-12-20T01:47:13;31.08;;;13.95;;
6406;SDS011;3236;51.022;6.818;2023-12-20T01:49:40;29.17;;;13.15;;
6406;SDS011;3236;51.022;6.818;2023-12-20T01:52:07;25.67;;;12.77;;
6406;SDS011;3236;51.022;6.818;2023-12-20T01:54:35;30.58;;;13.93;;
6406;SDS011;3236;51.022;6.818;2023-12-20T01:57:06;32.40;;;12.10;;
6406;SDS011;3236;51.022;6.818;2023-12-20T01:59:35;29.40;;;13.60;;
6406;SDS011;3236;51.022;6.818;2023-12-20T02:02:03;28.13;;;12.43;;
6406;SDS011;3236;51.022;6.818;2023-12-20T02:04:30;23.08;;;10.65;;
6406;SDS011;3236;51.022;6.818;2023-12-20T02:06:57;21.52;;;10.07;;
6406;SDS011;3236;51.022;6.818;2023-12-20T02:09:25;24.42;;;9.65;;
6406;SDS011;3236;51.022;6.818;2023-12-20T02:11:54;25.52;;;9.13;;
6406;SDS011;3236;51.022;6.818;2023-12-20T02:14:21;21.52;;;9.95;;
6406;SDS011;3236;51.022;6.818;2023-12-20T02:16:50;28.73;;;10.05;;
6406;SDS011;3236;51.022;6.818;2023-12-20T02:19:17;22.52;;;8.93;;
6406;SDS011;3236;51.022;6.818;2023-12-20T02:21:46;28.80;;;8.18;;
6406;SDS011;3236;51.022;6.818;2023-12-20T02:24:13;21.08;;;7.57;;
6406;SDS011;3236;51.022;6.818;2023-12-20T02:26:40;24.33;;;7.10;;
6406;SDS011;3236;51.022;6.818;2023-12-20T02:29:12;29.92;;;6.50;;
6406;SDS011;3236;51.022;6.818;2023-12-20T02:31:39;28.83;;;6.40;;
6406;SDS011;3236;51.022;6.818;2023-12-20T02:34:06;31.92;;;6.25;;
6406;SDS011;3236;51.022;6.818;2023-12-20T02:36:33;13.13;;;4.53;;
6406;SDS011;3236;51.022;6.818;2023-12-20T02:39:02;11.98;;;3.85;;
6406;SDS011;3236;51.022;6.818;2023-12-20T02:41:29;16.50;;;4.88;;
6406;SDS011;3236;51.022;6.818;2023-12-20T02:43:57;15.80;;;4.43;;
6406;SDS011;3236;51.022;6.818;2023-12-20T02:46:24;15.68;;;3.88;;
6406;SDS011;3236;51.022;6.818;2023-12-20T02:48:52;15.23;;;2.95;;
6406;SDS011;3236;51.022;6.818;2023-12-20T02:51:19;14.63;;;3.83;;
6406;SDS011;3236;51.022;6.818;2023-12-20T02:53:46;24.70;;;3.88;;
6406;SDS011;3236;51.022;6.818;2023-12-20T02:56:15;16.70;;;3.40;;
6406;SDS011;3236;51.022;6.818;2023-12-20T02:58:42;17.58;;;5.05;;
6406;SDS011;3236;51.022;6.818;2023-12-20T03:01:09;12.93;;;2.67;;
6406;SDS011;3236;51.022;6.818;2023-12-20T03:03:40;12.73;;;2.83;;
6406;SDS011;3236;51.022;6.818;2023-12-20T03:06:07;21.33;;;3.42;;
6406;SDS011;3236;51.022;6.818;2023-12-20T03:08:34;15.30;;;3.25;;
6406;SDS011;3236;51.022;6.818;2023-12-20T03:11:02;13.85;;;2.20;;
6406;SDS011;3236;51.022;6.818;2023-12-20T03:13:30;13.07;;;3.03;;
6406;SDS011;3236;51.022;6.818;2023-12-20T03:15:58;15.10;;;2.90;;
6406;SDS011;3236;51.022;6.818;2023-12-20T03:18:25;12.98;;;3.17;;
6406;SDS011;3236;51.022;6.818;2023-12-20T03:20:53;20.58;;;3.30;;
6406;SDS011;3236;51.022;6.818;2023-12-20T03:23:21;20.45;;;4.63;;
6406;SDS011;3236;51.022;6.818;2023-12-20T03:25:48;14.63;;;3.25;;
6406;SDS011;3236;51.022;6.818;2023-12-20T03:28:22;14.45;;;3.30;;
6406;SDS011;3236;51.022;6.818;2023-12-20T03:30:50;11.10;;;3.15;;
6406;SDS011;3236;51.022;6.818;2023-12-20T03:33:17;16.75;;;3.22;;
6406;SDS011;3236;51.022;6.818;2023-12-20T03:35:45;14.93;;;3.38;;
6406;SDS011;3236;51.022;6.818;2023-12-20T03:38:12;15.82;;;2.47;;
6406;SDS011;3236;51.022;6.818;2023-12-20T03:40:40;16.08;;;3.67;;
6406;SDS011;3236;51.022;6.818;2023-12-20T03:43:07;15.35;;;3.50;;
6406;SDS011;3236;51.022;6.818;2023-12-20T03:45:34;16.83;;;4.00;;
6406;SDS011;3236;51.022;6.818;2023-12-20T03:48:04;15.88;;;4.13;;
6406;SDS011;3236;51.022;6.818;2023-12-20T03:50:34;23.02;;;4.60;;
6406;SDS011;3236;51.022;6.818;2023-12-20T03:53:02;17.95;;;3.88;;
6406;SDS011;3236;51.022;6.818;2023-12-20T03:55:32;16.05;;;3.72;;
6406;SDS011;3236;51.022;6.818;2023-12-20T03:57:59;20.00;;;4.40;;
6406;SDS011;3236;51.022;6.818;2023-12-20T04:00:27;21.65;;;4.82;;
6406;SDS011;3236;51.022;6.818;2023-12-20T04:02:54;7.22;;;2.30;;
6406;SDS011;3236;51.022;6.818;2023-12-20T04:05:23;14.45;;;3.53;;
6406;SDS011;3236;51.022;6.818;2023-12-20T04:07:50;14.75;;;4.13;;
6406;SDS011;3236;51.022;6.818;2023-12-20T04:10:17;9.27;;;3.00;;
6406;SDS011;3236;51.022;6.818;2023-12-20T04:12:45;20.15;;;3.67;;
6406;SDS011;3236;51.022;6.818;2023-12-20T04:15:12;18.65;;;4.28;;
6406;SDS011;3236;51.022;6.818;2023-12-20T04:17:39;14.18;;;3.15;;
6406;SDS011;3236;51.022;6.818;2023-12-20T04:20:07;22.85;;;4.07;;
6406;SDS011;3236;51.022;6.818;2023-12-20T04:22:36;9.43;;;3.65;;
6406;SDS011;3236;51.022;6.818;2023-12-20T04:25:03;16.00;;;4.03;;
6406;SDS011;3236;51.022;6.818;2023-12-20T04:27:31;16.90;;;3.60;;
6406;SDS011;3236;51.022;6.818;2023-12-20T04:29:58;16.45;;;4.18;;
6406;SDS011;3236;51.022;6.818;2023-12-20T04:32:26;11.15;;;3.72;;
6406;SDS011;3236;51.022;6.818;2023-12-20T04:34:56;25.27;;;5.03;;
6406;SDS011;3236;51.022;6.818;2023-12-20T04:37:26;21.75;;;5.28;;
6406;SDS011;3236;51.022;6.818;2023-12-20T04:39:55;14.13;;;4.60;;
6406;SDS011;3236;51.022;6.818;2023-12-20T04:42:29;19.30;;;5.10;;
6406;SDS011;3236;51.022;6.818;2023-12-20T04:44:56;16.00;;;5.65;;
6406;SDS011;3236;51.022;6.818;2023-12-20T04:47:23;21.98;;;5.72;;
6406;SDS011;3236;51.022;6.818;2023-12-20T04:49:50;16.10;;;4.85;;
6406;SDS011;3236;51.022;6.818;2023-12-20T04:52:17;21.52;;;5.40;;
6406;SDS011;3236;51.022;6.818;2023-12-20T04:54:45;16.48;;;4.88;;
6406;SDS011;3236;51.022;6.818;2023-12-20T04:57:16;22.95;;;7.00;;
6406;SDS011;3236;51.022;6.818;2023-12-20T04:59:44;13.93;;;3.83;;
6406;SDS011;3236;51.022;6.818;2023-12-20T05:02:11;12.68;;;3.92;;
6406;SDS011;3236;51.022;6.818;2023-12-20T05:04:38;14.93;;;4.65;;
6406;SDS011;3236;51.022;6.818;2023-12-20T05:07:09;17.25;;;5.15;;
6406;SDS011;3236;51.022;6.818;2023-12-20T05:09:36;10.48;;;3.28;;
6406;SDS011;3236;51.022;6.818;2023-12-20T05:12:03;23.48;;;4.28;;
6406;SDS011;3236;51.022;6.818;2023-12-20T05:14:34;13.80;;;4.13;;
6406;SDS011;3236;51.022;6.818;2023-12-20T05:17:01;15.52;;;3.60;;
6406;SDS011;3236;51.022;6.818;2023-12-20T05:19:33;17.75;;;5.72;;
6406;SDS011;3236;51.022;6.818;2023-12-20T05:22:01;15.95;;;4.50;;
6406;SDS011;3236;51.022;6.818;2023-12-20T05:24:28;23.83;;;5.30;;
6406;SDS011;3236;51.022;6.818;2023-12-20T05:26:55;12.73;;;5.22;;
6406;SDS011;3236;51.022;6.818;2023-12-20T05:29:23;14.25;;;3.70;;
6406;SDS011;3236;51.022;6.818;2023-12-20T05:31:51;18.45;;;4.10;;
6406;SDS011;3236;51.022;6.818;2023-12-20T05:34:22;23.67;;;5.70;;
6406;SDS011;3236;51.022;6.818;2023-12-20T05:36:49;19.38;;;3.55;;
6406;SDS011;3236;51.022;6.818;2023-12-20T05:39:19;13.05;;;4.47;;
6406;SDS011;3236;51.022;6.818;2023-12-20T05:41:46;16.17;;;4.70;;
6406;SDS011;3236;51.022;6.818;2023-12-20T05:44:14;20.80;;;4.78;;
6406;SDS011;3236;51.022;6.818;2023-12-20T05:46:41;13.25;;;3.80;;
6406;SDS011;3236;51.022;6.818;2023-12-20T05:49:10;11.27;;;3.67;;
6406;SDS011;3236;51.022;6.818;2023-12-20T05:51:38;22.77;;;4.25;;
6406;SDS011;3236;51.022;6.818;2023-12-20T05:54:06;12.30;;;3.67;;
6406;SDS011;3236;51.022;6.818;2023-12-20T05:56:33;8.38;;;2.72;;
6406;SDS011;3236;51.022;6.818;2023-12-20T05:59:00;11.60;;;3.67;;
6406;SDS011;3236;51.022;6.818;2023-12-20T06:01:28;15.73;;;4.75;;
6406;SDS011;3236;51.022;6.818;2023-12-20T06:03:55;16.75;;;3.60;;
6406;SDS011;3236;51.022;6.818;2023-12-20T06:06:24;13.00;;;2.97;;
6406;SDS011;3236;51.022;6.818;2023-12-20T06:08:54;7.35;;;2.92;;
6406;SDS011;3236;51.022;6.818;2023-12-20T06:11:21;9.60;;;4.07;;
6406;SDS011;3236;51.022;6.818;2023-12-20T06:13:50;11.63;;;3.63;;
6406;SDS011;3236;51.022;6.818;2023-12-20T06:16:20;18.13;;;3.88;;
6406;SDS011;3236;51.022;6.818;2023-12-20T06:18:47;24.95;;;3.65;;
6406;SDS011;3236;51.022;6.818;2023-12-20T06:21:14;15.05;;;3.45;;
6406;SDS011;3236;51.022;6.818;2023-12-20T06:23:46;14.88;;;3.90;;
6406;SDS011;3236;51.022;6.818;2023-12-20T06:28:40;16.13;;;3.83;;
6406;SDS011;3236;51.022;6.818;2023-12-20T06:31:08;10.60;;;2.63;;
6406;SDS011;3236;51.022;6.818;2023-12-20T06:33:35;17.42;;;2.75;;
6406;SDS011;3236;51.022;6.818;2023-12-20T06:36:03;9.85;;;2.35;;
6406;SDS011;3236;51.022;6.818;2023-12-20T06:38:30;21.58;;;4.50;;
6406;SDS011;3236;51.022;6.818;2023-12-20T06:41:02;22.65;;;2.97;;
6406;SDS011;3236;51.022;6.818;2023-12-20T06:43:30;22.70;;;3.88;;
6406;SDS011;3236;51.022;6.818;2023-12-20T06:45:57;13.07;;;3.13;;
6406;SDS011;3236;51.022;6.818;2023-12-20T06:48:24;19.85;;;3.95;;
6406;SDS011;3236;51.022;6.818;2023-12-20T06:50:52;22.50;;;3.67;;
6406;SDS011;3236;51.022;6.818;2023-12-20T06:53:19;19.23;;;3.30;;
6406;SDS011;3236;51.022;6.818;2023-12-20T06:55:46;10.00;;;2.35;;
6406;SDS011;3236;51.022;6.818;2023-12-20T06:58:15;19.33;;;3.75;;
6406;SDS011;3236;51.022;6.818;2023-12-20T07:00:43;6.55;;;2.88;;
6406;SDS011;3236;51.022;6.818;2023-12-20T07:03:10;18.70;;;3.58;;
6406;SDS011;3236;51.022;6.818;2023-12-20T07:05:37;9.57;;;2.65;;
6406;SDS011;3236;51.022;6.818;2023-12-20T07:08:06;6.25;;;1.52;;
6406;SDS011;3236;51.022;6.818;2023-12-20T07:10:33;13.25;;;3.47;;
6406;SDS011;3236;51.022;6.818;2023-12-20T07:13:00;5.35;;;1.80;;
6406;SDS011;3236;51.022;6.818;2023-12-20T07:15:29;9.75;;;2.05;;
6406;SDS011;3236;51.022;6.818;2023-12-20T07:17:56;10.50;;;2.72;;
6406;SDS011;3236;51.022;6.818;2023-12-20T07:20:25;9.35;;;2.05;;
6406;SDS011;3236;51.022;6.818;2023-12-20T07:22:53;13.98;;;3.75;;
6406;SDS011;3236;51.022;6.818;2023-12-20T07:25:21;10.27;;;2.95;;
6406;SDS011;3236;51.022;6.818;2023-12-20T07:27:48;17.42;;;4.60;;
6406;SDS011;3236;51.022;6.818;2023-12-20T07:30:16;14.63;;;4.25;;
6406;SDS011;3236;51.022;6.818;2023-12-20T07:32:44;11.88;;;2.47;;
6406;SDS011;3236;51.022;6.818;2023-12-20T07:35:12;17.02;;;3.63;;
6406;SDS011;3236;51.022;6.818;2023-12-20T07:37:40;15.05;;;2.65;;
6406;SDS011;3236;51.022;6.818;2023-12-20T07:40:09;4.97;;;2.17;;
6406;SDS011;3236;51.022;6.818;2023-12-20T07:42:37;13.35;;;4.05;;
6406;SDS011;3236;51.022;6.818;2023-12-20T07:45:05;14.63;;;3.80;;
6406;SDS011;3236;51.022;6.818;2023-12-20T07:47:33;9.07;;;3.15;;
6406;SDS011;3236;51.022;6.818;2023-12-20T07:50:02;13.07;;;4.53;;
6406;SDS011;3236;51.022;6.818;2023-12-20T07:52:33;10.10;;;2.50;;
6406;SDS011;3236;51.022;6.818;2023-12-20T07:55:00;14.77;;;4.28;;
6406;SDS011;3236;51.022;6.818;2023-12-20T07:57:28;9.25;;;3.25;;
6406;SDS011;3236;51.022;6.818;2023-12-20T07:59:55;6.50;;;3.80;;
6406;SDS011;3236;51.022;6.818;2023-12-20T08:02:22;9.65;;;3.22;;
6406;SDS011;3236;51.022;6.818;2023-12-20T08:04:54;21.33;;;3.33;;
6406;SDS011;3236;51.022;6.818;2023-12-20T08:07:22;8.25;;;3.15;;
6406;SDS011;3236;51.022;6.818;2023-12-20T08:09:49;13.63;;;2.90;;
6406;SDS011;3236;51.022;6.818;2023-12-20T08:12:17;11.68;;;3.38;;
6406;SDS011;3236;51.022;6.818;2023-12-20T08:14:44;13.10;;;3.08;;
6406;SDS011;3236;51.022;6.818;2023-12-20T08:17:11;15.23;;;3.90;;
6406;SDS011;3236;51.022;6.818;2023-12-20T08:19:41;11.48;;;2.85;;
6406;SDS011;3236;51.022;6.818;2023-12-20T08:22:08;14.35;;;3.60;;
6406;SDS011;3236;51.022;6.818;2023-12-20T08:24:37;10.63;;;2.80;;
6406;SDS011;3236;51.022;6.818;2023-12-20T08:27:05;12.18;;;2.95;;
6406;SDS011;3236;51.022;6.818;2023-12-20T08:29:41;5.90;;;2.03;;
6406;SDS011;3236;51.022;6.818;2023-12-20T08:32:10;6.07;;;2.10;;
6406;SDS011;3236;51.022;6.818;2023-12-20T08:34:38;13.25;;;3.10;;
6406;SDS011;3236;51.022;6.818;2023-12-20T08:37:05;13.88;;;3.60;;
6406;SDS011;3236;51.022;6.818;2023-12-20T08:39:32;14.00;;;3.55;;
6406;SDS011;3236;51.022;6.818;2023-12-20T08:42:01;10.95;;;4.03;;
6406;SDS011;3236;51.022;6.818;2023-12-20T08:44:29;21.35;;;4.22;;
6406;SDS011;3236;51.022;6.818;2023-12-20T08:46:56;13.90;;;4.18;;
6406;SDS011;3236;51.022;6.818;2023-12-20T08:49:23;7.80;;;3.50;;
6406;SDS011;3236;51.022;6.818;2023-12-20T08:51:51;14.95;;;3.15;;
6406;SDS011;3236;51.022;6.818;2023-12-20T08:54:18;13.60;;;3.53;;
6406;SDS011;3236;51.022;6.818;2023-12-20T08:56:45;8.38;;;1.83;;
6406;SDS011;3236;51.022;6.818;2023-12-20T08:59:14;12.48;;;3.70;;
6406;SDS011;3236;51.022;6.818;2023-12-20T09:01:43;11.13;;;2.70;;
6406;SDS011;3236;51.022;6.818;2023-12-20T09:04:11;13.23;;;3.53;;
6406;SDS011;3236;51.022;6.818;2023-12-20T09:06:39;8.63;;;2.80;;
6406;SDS011;3236;51.022;6.818;2023-12-20T09:09:06;7.60;;;2.67;;
6406;SDS011;3236;51.022;6.818;2023-12-20T09:11:38;16.52;;;4.18;;
6406;SDS011;3236;51.022;6.818;2023-12-20T09:14:06;7.13;;;2.83;;
6406;SDS011;3236;51.022;6.818;2023-12-20T09:16:40;7.68;;;1.67;;
6406;SDS011;3236;51.022;6.818;2023-12-20T09:19:07;10.23;;;3.85;;
6406;SDS011;3236;51.022;6.818;2023-12-20T09:21:35;8.98;;;2.67;;
6406;SDS011;3236;51.022;6.818;2023-12-20T09:24:02;21.42;;;4.60;;
6406;SDS011;3236;51.022;6.818;2023-12-20T09:26:30;15.50;;;2.75;;
6406;SDS011;3236;51.022;6.818;2023-12-20T09:28:57;11.48;;;2.63;;
6406;SDS011;3236;51.022;6.818;2023-12-20T09:31:24;11.07;;;2.63;;
6406;SDS011;3236;51.022;6.818;2023-12-20T09:33:54;6.82;;;2.75;;
6406;SDS011;3236;51.022;6.818;2023-12-20T09:36:21;24.10;;;3.67;;
6406;SDS011;3236;51.022;6.818;2023-12-20T09:38:55;11.60;;;3.58;;
6406;SDS011;3236;51.022;6.818;2023-12-20T09:41:22;5.05;;;1.42;;
6406;SDS011;3236;51.022;6.818;2023-12-20T09:43:51;10.70;;;2.92;;
6406;SDS011;3236;51.022;6.818;2023-12-20T09:46:21;9.57;;;2.22;;
6406;SDS011;3236;51.022;6.818;2023-12-20T09:48:56;11.23;;;3.00;;
6406;SDS011;3236;51.022;6.818;2023-12-20T09:51:24;13.02;;;2.90;;
6406;SDS011;3236;51.022;6.818;2023-12-20T09:53:52;13.60;;;3.85;;
6406;SDS011;3236;51.022;6.818;2023-12-20T09:56:22;8.85;;;2.92;;
6406;SDS011;3236;51.022;6.818;2023-12-20T09:58:56;12.48;;;2.80;;
6406;SDS011;3236;51.022;6.818;2023-12-20T10:01:23;13.80;;;3.15;;
6406;SDS011;3236;51.022;6.818;2023-12-20T10:03:51;2.40;;;1.80;;
6406;SDS011;3236;51.022;6.818;2023-12-20T10:06:22;8.15;;;2.67;;
6406;SDS011;3236;51.022;6.818;2023-12-20T10:08:49;11.55;;;2.83;;
6406;SDS011;3236;51.022;6.818;2023-12-20T10:11:17;18.17;;;3.00;;
6406;SDS011;3236;51.022;6.818;2023-12-20T10:13:47;11.73;;;2.53;;
6406;SDS011;3236;51.022;6.818;2023-12-20T10:16:14;8.25;;;2.33;;
6406;SDS011;3236;51.022;6.818;2023-12-20T10:18:42;6.28;;;2.85;;
6406;SDS011;3236;51.022;6.818;2023-12-20T10:21:10;9.15;;;2.17;;
6406;SDS011;3236;51.022;6.818;2023-12-20T10:23:38;11.27;;;2.70;;
6406;SDS011;3236;51.022;6.818;2023-12-20T10:26:06;6.78;;;1.90;;
6406;SDS011;3236;51.022;6.818;2023-12-20T10:28:36;10.65;;;2.17;;
6406;SDS011;3236;51.022;6.818;2023-12-20T10:31:04;15.02;;;3.00;;
6406;SDS011;3236;51.022;6.818;2023-12-20T10:33:31;7.00;;;2.47;;
6406;SDS011;3236;51.022;6.818;2023-12-20T10:36:02;13.75;;;2.53;;
6406;SDS011;3236;51.022;6.818;2023-12-20T10:38:30;13.35;;;2.47;;
6406;SDS011;3236;51.022;6.818;2023-12-20T10:41:01;7.78;;;2.15;;
6406;SDS011;3236;51.022;6.818;2023-12-20T10:43:35;3.05;;;2.35;;
6406;SDS011;3236;51.022;6.818;2023-12-20T10:46:04;9.07;;;2.38;;
6406;SDS011;3236;51.022;6.818;2023-12-20T10:48:32;6.63;;;2.53;;
6406;SDS011;3236;51.022;6.818;2023-12-20T10:50:59;12.15;;;2.28;;
6406;SDS011;3236;51.022;6.818;2023-12-20T10:53:28;9.77;;;1.88;;
6406;SDS011;3236;51.022;6.818;2023-12-20T10:55:59;11.52;;;1.95;;
6406;SDS011;3236;51.022;6.818;2023-12-20T10:58:29;18.42;;;2.95;;
6406;SDS011;3236;51.022;6.818;2023-12-20T11:00:59;9.32;;;1.73;;
6406;SDS011;3236;51.022;6.818;2023-12-20T11:03:28;5.22;;;2.03;;
6406;SDS011;3236;51.022;6.818;2023-12-20T11:06:02;7.88;;;2.60;;
6406;SDS011;3236;51.022;6.818;2023-12-20T11:08:35;8.85;;;2.15;;
6406;SDS011;3236;51.022;6.818;2023-12-20T11:11:06;14.65;;;2.40;;
6406;SDS011;3236;51.022;6.818;2023-12-20T11:13:40;4.47;;;1.92;;
6406;SDS011;3236;51.022;6.818;2023-12-20T11:16:11;5.30;;;1.85;;
6406;SDS011;3236;51.022;6.818;2023-12-20T11:18:38;13.02;;;3.63;;
6406;SDS011;3236;51.022;6.818;2023-12-20T11:21:07;6.53;;;2.53;;
6406;SDS011;3236;51.022;6.818;2023-12-20T11:23:35;4.30;;;1.92;;
6406;SDS011;3236;51.022;6.818;2023-12-20T11:26:03;5.97;;;2.75;;
6406;SDS011;3236;51.022;6.818;2023-12-20T11:28:33;12.75;;;2.15;;
6406;SDS011;3236;51.022;6.818;2023-12-20T11:31:00;14.48;;;2.78;;
6406;SDS011;3236;51.022;6.818;2023-12-20T11:33:37;9.95;;;1.98;;
6406;SDS011;3236;51.022;6.818;2023-12-20T11:36:12;5.53;;;1.35;;
6406;SDS011;3236;51.022;6.818;2023-12-20T11:38:50;14.38;;;3.97;;
6406;SDS011;3236;51.022;6.818;2023-12-20T11:41:22;10.35;;;2.38;;
6406;SDS011;3236;51.022;6.818;2023-12-20T11:43:51;11.23;;;2.35;;
6406;SDS011;3236;51.022;6.818;2023-12-20T11:46:20;4.22;;;1.55;;
6406;SDS011;3236;51.022;6.818;2023-12-20T11:48:47;18.75;;;2.42;;
6406;SDS011;3236;51.022;6.818;2023-12-20T11:51:15;6.00;;;1.67;;
6406;SDS011;3236;51.022;6.818;2023-12-20T11:53:42;10.13;;;2.63;;
6406;SDS011;3236;51.022;6.818;2023-12-20T11:56:11;8.02;;;2.95;;
6406;SDS011;3236;51.022;6.818;2023-12-20T11:58:38;21.25;;;3.42;;
6406;SDS011;3236;51.022;6.818;2023-12-20T12:01:08;9.68;;;2.63;;
6406;SDS011;3236;51.022;6.818;2023-12-20T12:03:43;13.40;;;2.20;;
6406;SDS011;3236;51.022;6.818;2023-12-20T12:06:10;15.93;;;3.30;;
6406;SDS011;3236;51.022;6.818;2023-12-20T12:08:38;11.63;;;3.03;;
6406;SDS011;3236;51.022;6.818;2023-12-20T12:11:05;6.45;;;2.53;;
6406;SDS011;3236;51.022;6.818;2023-12-20T12:13:33;10.48;;;2.90;;
6406;SDS011;3236;51.022;6.818;2023-12-20T12:16:04;10.85;;;3.08;;
6406;SDS011;3236;51.022;6.818;2023-12-20T12:18:33;8.65;;;2.97;;
6406;SDS011;3236;51.022;6.818;2023-12-20T12:21:00;10.80;;;3.58;;
6406;SDS011;3236;51.022;6.818;2023-12-20T12:23:28;12.15;;;3.40;;
6406;SDS011;3236;51.022;6.818;2023-12-20T12:25:56;16.55;;;4.22;;
6406;SDS011;3236;51.022;6.818;2023-12-20T12:28:25;13.75;;;3.47;;
6406;SDS011;3236;51.022;6.818;2023-12-20T12:30:57;12.82;;;2.70;;
6406;SDS011;3236;51.022;6.818;2023-12-20T12:33:24;9.05;;;2.85;;
6406;SDS011;3236;51.022;6.818;2023-12-20T12:35:56;14.65;;;2.75;;
6406;SDS011;3236;51.022;6.818;2023-12-20T12:38:25;10.50;;;3.55;;
6406;SDS011;3236;51.022;6.818;2023-12-20T12:40:52;8.52;;;2.83;;
6406;SDS011;3236;51.022;6.818;2023-12-20T12:43:19;18.08;;;3.35;;
6406;SDS011;3236;51.022;6.818;2023-12-20T12:45:48;8.05;;;2.92;;
6406;SDS011;3236;51.022;6.818;2023-12-20T12:48:15;5.30;;;2.33;;
6406;SDS011;3236;51.022;6.818;2023-12-20T12:50:42;12.38;;;3.45;;
6406;SDS011;3236;51.022;6.818;2023-12-20T12:53:11;6.60;;;2.55;;
6406;SDS011;3236;51.022;6.818;2023-12-20T12:55:39;7.75;;;3.30;;
6406;SDS011;3236;51.022;6.818;2023-12-20T12:58:06;4.20;;;2.63;;
6406;SDS011;3236;51.022;6.818;2023-12-20T13:00:33;13.13;;;3.25;;
6406;SDS011;3236;51.022;6.818;2023-12-20T13:03:01;9.35;;;3.38;;
6406;SDS011;3236;51.022;6.818;2023-12-20T13:05:28;12.63;;;3.00;;
6406;SDS011;3236;51.022;6.818;2023-12-20T13:07:56;10.65;;;3.55;;
6406;SDS011;3236;51.022;6.818;2023-12-20T13:10:25;8.13;;;4.45;;
6406;SDS011;3236;51.022;6.818;2023-12-20T13:12:52;8.45;;;2.75;;
6406;SDS011;3236;51.022;6.818;2023-12-20T13:15:21;9.50;;;3.10;;
6406;SDS011;3236;51.022;6.818;2023-12-20T13:17:48;8.45;;;2.92;;
6406;SDS011;3236;51.022;6.818;2023-12-20T13:20:16;6.35;;;3.25;;
6406;SDS011;3236;51.022;6.818;2023-12-20T13:22:43;6.72;;;3.22;;
6406;SDS011;3236;51.022;6.818;2023-12-20T13:25:12;14.30;;;3.80;;
6406;SDS011;3236;51.022;6.818;2023-12-20T13:27:41;15.77;;;2.15;;
6406;SDS011;3236;51.022;6.818;2023-12-20T13:30:11;8.30;;;3.22;;
6406;SDS011;3236;51.022;6.818;2023-12-20T13:32:39;8.77;;;2.42;;
6406;SDS011;3236;51.022;6.818;2023-12-20T13:35:06;20.35;;;3.75;;
6406;SDS011;3236;51.022;6.818;2023-12-20T13:37:34;9.95;;;3.67;;
6406;SDS011;3236;51.022;6.818;2023-12-20T13:40:02;13.10;;;4.05;;
6406;SDS011;3236;51.022;6.818;2023-12-20T13:42:31;9.65;;;3.50;;
6406;SDS011;3236;51.022;6.818;2023-12-20T13:45:00;5.15;;;1.83;;
6406;SDS011;3236;51.022;6.818;2023-12-20T13:47:29;3.75;;;1.88;;
6406;SDS011;3236;51.022;6.818;2023-12-20T13:49:57;7.03;;;2.13;;
6406;SDS011;3236;51.022;6.818;2023-12-20T13:52:24;15.50;;;3.60;;
6406;SDS011;3236;51.022;6.818;2023-12-20T13:54:52;11.70;;;4.03;;
6406;SDS011;3236;51.022;6.818;2023-12-20T13:57:19;7.82;;;3.40;;
6406;SDS011;3236;51.022;6.818;2023-12-20T13:59:47;6.80;;;2.70;;
6406;SDS011;3236;51.022;6.818;2023-12-20T14:02:16;5.95;;;2.60;;
6406;SDS011;3236;51.022;6.818;2023-12-20T14:04:43;5.35;;;2.45;;
6406;SDS011;3236;51.022;6.818;2023-12-20T14:07:17;9.50;;;2.55;;
6406;SDS011;3236;51.022;6.818;2023-12-20T14:09:46;10.80;;;2.10;;
6406;SDS011;3236;51.022;6.818;2023-12-20T14:12:13;12.75;;;2.80;;
6406;SDS011;3236;51.022;6.818;2023-12-20T14:14:41;6.70;;;3.13;;
6406;SDS011;3236;51.022;6.818;2023-12-20T14:17:10;15.80;;;3.20;;
6406;SDS011;3236;51.022;6.818;2023-12-20T14:19:38;10.70;;;3.13;;
6406;SDS011;3236;51.022;6.818;2023-12-20T14:22:07;11.88;;;3.30;;
6406;SDS011;3236;51.022;6.818;2023-12-20T14:24:34;6.57;;;2.42;;
6406;SDS011;3236;51.022;6.818;2023-12-20T14:27:02;9.82;;;2.53;;
6406;SDS011;3236;51.022;6.818;2023-12-20T14:29:29;8.18;;;3.03;;
6406;SDS011;3236;51.022;6.818;2023-12-20T14:31:57;8.63;;;2.58;;
6406;SDS011;3236;51.022;6.818;2023-12-20T14:34:25;13.00;;;3.13;;
6406;SDS011;3236;51.022;6.818;2023-12-20T14:36:53;8.77;;;2.17;;
6406;SDS011;3236;51.022;6.818;2023-12-20T14:39:21;6.32;;;2.38;;
6406;SDS011;3236;51.022;6.818;2023-12-20T14:41:48;5.30;;;2.35;;
6406;SDS011;3236;51.022;6.818;2023-12-20T14:44:16;7.47;;;2.15;;
6406;SDS011;3236;51.022;6.818;2023-12-20T14:46:46;11.55;;;2.30;;
6406;SDS011;3236;51.022;6.818;2023-12-20T14:49:13;11.75;;;3.08;;
6406;SDS011;3236;51.022;6.818;2023-12-20T14:51:43;12.63;;;4.35;;
6406;SDS011;3236;51.022;6.818;2023-12-20T14:54:14;12.85;;;2.63;;
6406;SDS011;3236;51.022;6.818;2023-12-20T14:56:41;9.80;;;3.40;;
6406;SDS011;3236;51.022;6.818;2023-12-20T14:59:09;15.43;;;3.38;;
6406;SDS011;3236;51.022;6.818;2023-12-20T15:01:36;9.00;;;2.75;;
6406;SDS011;3236;51.022;6.818;2023-12-20T15:04:05;9.07;;;2.28;;
6406;SDS011;3236;51.022;6.818;2023-12-20T15:06:32;4.93;;;2.22;;
6406;SDS011;3236;51.022;6.818;2023-12-20T15:09:00;9.43;;;2.22;;
6406;SDS011;3236;51.022;6.818;2023-12-20T15:11:31;13.20;;;2.97;;
6406;SDS011;3236;51.022;6.818;2023-12-20T15:13:59;12.07;;;3.10;;